Time;durP1;ratioP1;P1;durP2;ratioP2;P2;SDS_P1;SDS_P2;PMS_P1;PMS_P2;Temp;Humidity;BMP_temperature;BMP_pressure;BME280_temperature;BME280_humidity;BME280_pressure;Samples;Min_cycle;Max_cycle;Signal;HPM_P1;HPM_P2
2021/12/02 00:01:14;;;;;;;5.33;1.70;;;;;;;;;;5045198;28;20940;-84
2021/12/02 00:03:40;;;;;;;13.20;1.70;;;;;;;;;;5038331;28;20248;-80
2021/12/02 00:06:12;;;;;;;7.37;1.70;;;;;;;;;;5043523;28;20429;-82
2021/12/02 00:08:38;;;;;;;5.20;2.20;;;;;;;;;;5043281;28;20499;-78
2021/12/02 00:11:04;;;;;;;2.60;1.00;;;;;;;;;;5045825;28;20453;-77
2021/12/02 00:13:36;;;;;;;4.37;1.23;;;;;;;;;;5043559;28;20227;-86
2021/12/02 00:16:21;;;;;;;7.40;1.37;;;;;;;;;;5047726;28;20260;-79
2021/12/02 00:21:17;;;;;;;4.20;0.93;;;;;;;;;;5037558;28;25129;-80
2021/12/02 00:24:03;;;;;;;4.50;1.40;;;;;;;;;;5029891;28;20493;-77
2021/12/02 00:26:29;;;;;;;4.63;1.33;;;;;;;;;;5024430;28;20809;-78
2021/12/02 00:28:55;;;;;;;6.47;1.60;;;;;;;;;;5021503;28;20444;-77
2021/12/02 00:31:22;;;;;;;8.33;1.57;;;;;;;;;;5048761;28;20448;-76
2021/12/02 00:33:49;;;;;;;4.47;1.33;;;;;;;;;;5026449;28;20469;-77
2021/12/02 00:36:15;;;;;;;3.73;1.47;;;;;;;;;;5041591;28;20438;-78
2021/12/02 00:38:41;;;;;;;5.10;1.47;;;;;;;;;;5063843;28;20525;-80
2021/12/02 00:41:10;;;;;;;5.80;1.53;;;;;;;;;;5047070;28;20536;-76
2021/12/02 00:43:35;;;;;;;7.40;1.53;;;;;;;;;;5046955;28;20481;-80
2021/12/02 00:46:00;;;;;;;3.30;0.90;;;;;;;;;;5039084;28;20576;-78
2021/12/02 00:48:26;;;;;;;3.87;1.03;;;;;;;;;;5042092;28;20210;-76
2021/12/02 00:50:51;;;;;;;5.77;1.30;;;;;;;;;;5043242;28;20187;-77
2021/12/02 00:53:19;;;;;;;6.50;1.23;;;;;;;;;;5044147;28;20306;-81
2021/12/02 00:55:44;;;;;;;6.00;0.87;;;;;;;;;;5037379;28;20728;-77
2021/12/02 00:58:11;;;;;;;5.57;1.17;;;;;;;;;;5036814;28;20438;-79
2021/12/02 01:00:37;;;;;;;6.30;1.20;;;;;;;;;;5042471;28;20589;-79
2021/12/02 01:03:03;;;;;;;3.93;1.20;;;;;;;;;;5044473;28;20567;-79
2021/12/02 01:05:29;;;;;;;4.43;1.00;;;;;;;;;;5042645;28;20868;-79
2021/12/02 01:07:55;;;;;;;8.90;1.40;;;;;;;;;;5041708;28;20187;-87
2021/12/02 01:10:20;;;;;;;3.10;1.30;;;;;;;;;;5043640;28;20929;-78
2021/12/02 01:12:47;;;;;;;5.53;1.30;;;;;;;;;;5045079;28;20241;-77
2021/12/02 01:15:12;;;;;;;1.57;0.70;;;;;;;;;;5038120;28;20190;-79
2021/12/02 01:17:38;;;;;;;3.77;1.20;;;;;;;;;;5044629;28;20451;-87
2021/12/02 01:20:04;;;;;;;3.90;1.03;;;;;;;;;;5044266;28;20600;-75
2021/12/02 01:22:33;;;;;;;4.23;1.20;;;;;;;;;;5037457;28;20437;-77
2021/12/02 01:24:59;;;;;;;8.80;1.30;;;;;;;;;;5038609;28;20187;-84
2021/12/02 01:27:24;;;;;;;9.30;1.20;;;;;;;;;;5035773;28;20457;-78
2021/12/02 01:29:52;;;;;;;3.53;0.90;;;;;;;;;;5042055;28;20199;-79
2021/12/02 01:32:17;;;;;;;3.03;0.90;;;;;;;;;;5044371;28;20237;-76
2021/12/02 01:34:45;;;;;;;5.20;1.60;;;;;;;;;;5039422;28;20536;-78
2021/12/02 01:37:11;;;;;;;3.63;0.90;;;;;;;;;;5032713;28;20340;-80
2021/12/02 01:39:36;;;;;;;3.00;0.90;;;;;;;;;;5042683;28;20629;-77
2021/12/02 01:42:01;;;;;;;7.60;1.53;;;;;;;;;;5043379;28;20172;-77
2021/12/02 01:44:28;;;;;;;4.37;1.57;;;;;;;;;;5046281;28;20733;-78
2021/12/02 01:46:55;;;;;;;4.40;1.13;;;;;;;;;;5047552;28;20662;-76
2021/12/02 01:49:22;;;;;;;4.00;1.07;;;;;;;;;;5050745;28;20433;-81
2021/12/02 01:51:52;;;;;;;2.33;1.33;;;;;;;;;;5048427;28;21895;-76
2021/12/02 01:54:21;;;;;;;2.80;1.10;;;;;;;;;;5051295;28;20473;-78
2021/12/02 01:56:50;;;;;;;4.53;1.03;;;;;;;;;;5038835;28;20796;-79
2021/12/02 01:59:17;;;;;;;2.40;1.30;;;;;;;;;;5042952;28;20441;-81
2021/12/02 02:01:43;;;;;;;5.63;1.20;;;;;;;;;;5045660;28;20437;-78
2021/12/02 02:04:09;;;;;;;2.20;0.80;;;;;;;;;;5045343;28;20503;-79
2021/12/02 02:06:37;;;;;;;3.93;1.17;;;;;;;;;;5048175;28;20874;-78
2021/12/02 02:09:04;;;;;;;6.00;1.20;;;;;;;;;;5037725;28;20210;-77
2021/12/02 02:11:30;;;;;;;3.73;1.10;;;;;;;;;;5032564;28;20435;-77
2021/12/02 02:13:57;;;;;;;5.63;1.23;;;;;;;;;;5022567;28;20470;-76
2021/12/02 02:16:25;;;;;;;7.40;1.00;;;;;;;;;;5025004;28;20939;-77
2021/12/02 02:18:50;;;;;;;4.80;1.10;;;;;;;;;;5028870;28;20206;-80
2021/12/02 02:21:18;;;;;;;3.90;1.20;;;;;;;;;;5030264;28;20434;-76
2021/12/02 02:23:49;;;;;;;6.67;0.90;;;;;;;;;;5031419;28;20266;-76
2021/12/02 02:26:17;;;;;;;2.10;1.03;;;;;;;;;;5034521;28;20440;-81
2021/12/02 02:28:42;;;;;;;3.30;1.17;;;;;;;;;;5022333;28;20453;-79
2021/12/02 02:31:13;;;;;;;5.30;1.50;;;;;;;;;;5031984;28;20437;-85
2021/12/02 02:33:39;;;;;;;3.40;1.00;;;;;;;;;;5041640;28;20311;-77
2021/12/02 02:36:05;;;;;;;6.20;1.30;;;;;;;;;;5042422;28;20924;-81
2021/12/02 02:38:30;;;;;;;4.20;1.20;;;;;;;;;;5041928;28;20198;-83
2021/12/02 02:40:58;;;;;;;3.67;0.90;;;;;;;;;;5040443;28;20545;-80
2021/12/02 02:43:25;;;;;;;9.90;1.07;;;;;;;;;;5039218;28;20218;-77
2021/12/02 02:45:51;;;;;;;2.67;1.17;;;;;;;;;;5042433;28;20528;-76
2021/12/02 02:48:16;;;;;;;3.60;1.17;;;;;;;;;;5054777;28;20790;-83
2021/12/02 02:50:41;;;;;;;5.57;1.20;;;;;;;;;;5036765;28;20198;-81
2021/12/02 02:53:17;;;;;;;1.60;0.83;;;;;;;;;;5047357;28;20309;-78
2021/12/02 02:55:57;;;;;;;4.70;0.90;;;;;;;;;;5035712;28;20243;-78
2021/12/02 03:01:02;;;;;;;1.70;0.80;;;;;;;;;;5030365;28;21032;-80
2021/12/02 03:03:43;;;;;;;4.13;1.10;;;;;;;;;;5029103;28;20230;-83
2021/12/02 03:06:34;;;;;;;2.60;1.00;;;;;;;;;;5039527;28;20428;-75
2021/12/02 03:09:07;;;;;;;4.93;1.00;;;;;;;;;;5030171;28;20441;-76
2021/12/02 03:11:46;;;;;;;4.00;1.10;;;;;;;;;;5034554;28;21315;-76
2021/12/02 03:14:15;;;;;;;3.43;0.90;;;;;;;;;;5030175;28;20569;-81
2021/12/02 03:16:44;;;;;;;2.70;1.10;;;;;;;;;;5027449;28;20894;-78
2021/12/02 03:19:13;;;;;;;1.53;0.60;;;;;;;;;;5025018;28;25196;-79
2021/12/02 03:21:38;;;;;;;1.47;0.60;;;;;;;;;;5025900;28;20461;-76
2021/12/02 03:24:04;;;;;;;1.73;1.10;;;;;;;;;;5023528;28;20463;-75
2021/12/02 03:26:29;;;;;;;3.20;1.20;;;;;;;;;;5037176;28;20559;-78
2021/12/02 03:28:55;;;;;;;2.53;1.10;;;;;;;;;;5046562;28;20184;-79
2021/12/02 03:31:21;;;;;;;2.23;0.70;;;;;;;;;;5040280;28;20187;-79
2021/12/02 03:33:47;;;;;;;2.30;0.60;;;;;;;;;;5042105;28;20594;-78
2021/12/02 03:36:13;;;;;;;3.27;0.80;;;;;;;;;;5059773;28;20974;-78
2021/12/02 03:38:39;;;;;;;4.10;0.70;;;;;;;;;;5041279;28;20191;-76
2021/12/02 03:41:04;;;;;;;7.27;0.90;;;;;;;;;;5044668;28;25116;-76
2021/12/02 03:43:36;;;;;;;4.33;0.80;;;;;;;;;;5044520;28;20207;-76
2021/12/02 03:46:02;;;;;;;2.70;0.80;;;;;;;;;;5041938;28;20253;-76
2021/12/02 03:48:27;;;;;;;4.70;0.83;;;;;;;;;;5045484;28;20961;-76
2021/12/02 03:50:53;;;;;;;1.93;0.80;;;;;;;;;;5033866;28;20449;-76
2021/12/02 03:53:18;;;;;;;2.20;0.90;;;;;;;;;;5044273;28;20240;-80
2021/12/02 03:55:43;;;;;;;3.90;0.60;;;;;;;;;;5049364;28;20682;-79
2021/12/02 03:58:09;;;;;;;1.20;0.80;;;;;;;;;;5043761;28;20183;-77
2021/12/02 04:00:34;;;;;;;2.50;0.80;;;;;;;;;;5039538;28;20214;-75
2021/12/02 04:02:59;;;;;;;3.27;0.73;;;;;;;;;;5037125;28;25048;-77
2021/12/02 04:05:25;;;;;;;2.00;0.70;;;;;;;;;;5043587;28;20193;-77
2021/12/02 04:07:50;;;;;;;5.30;0.90;;;;;;;;;;5046103;28;20178;-76
2021/12/02 04:10:16;;;;;;;4.07;0.90;;;;;;;;;;5045811;28;20541;-76
2021/12/02 04:12:50;;;;;;;2.90;1.10;;;;;;;;;;5048889;28;20691;-78
2021/12/02 04:15:29;;;;;;;3.53;0.87;;;;;;;;;;5049423;28;25141;-79
2021/12/02 04:17:55;;;;;;;3.67;1.00;;;;;;;;;;5046494;28;20430;-78
2021/12/02 04:20:22;;;;;;;4.93;1.00;;;;;;;;;;5048485;28;20453;-78
2021/12/02 04:22:48;;;;;;;5.73;1.27;;;;;;;;;;5043480;28;20217;-77
2021/12/02 04:25:14;;;;;;;4.20;0.97;;;;;;;;;;5049258;28;25100;-78
2021/12/02 04:27:40;;;;;;;3.60;0.70;;;;;;;;;;5047086;28;25078;-79
2021/12/02 04:30:07;;;;;;;3.23;0.90;;;;;;;;;;5046650;28;25105;-76
2021/12/02 04:32:33;;;;;;;5.00;1.10;;;;;;;;;;5046728;28;25095;-78
2021/12/02 04:34:58;;;;;;;1.07;0.50;;;;;;;;;;5051835;28;25101;-77
2021/12/02 04:37:23;;;;;;;1.73;0.77;;;;;;;;;;5055244;28;25057;-77
2021/12/02 04:39:49;;;;;;;2.60;0.87;;;;;;;;;;5055443;28;25061;-80
2021/12/02 04:42:14;;;;;;;4.70;0.90;;;;;;;;;;5041905;28;25059;-78
2021/12/02 04:44:39;;;;;;;1.63;0.77;;;;;;;;;;5045886;28;20256;-77
2021/12/02 04:47:10;;;;;;;4.27;0.93;;;;;;;;;;5047171;28;20558;-83
2021/12/02 04:49:36;;;;;;;1.33;0.60;;;;;;;;;;5042221;28;20175;-78
2021/12/02 04:52:01;;;;;;;2.33;0.80;;;;;;;;;;5045398;28;20910;-78
2021/12/02 04:54:27;;;;;;;2.50;0.70;;;;;;;;;;5043333;28;20468;-84
2021/12/02 04:56:52;;;;;;;1.67;0.70;;;;;;;;;;5048924;28;20399;-77
2021/12/02 04:59:18;;;;;;;2.57;0.73;;;;;;;;;;5038955;28;20710;-77
2021/12/02 05:01:43;;;;;;;1.10;0.80;;;;;;;;;;5055690;28;20183;-76
2021/12/02 05:04:09;;;;;;;1.37;0.80;;;;;;;;;;5049117;28;20214;-76
2021/12/02 05:06:34;;;;;;;2.70;0.70;;;;;;;;;;5047740;28;20232;-76
2021/12/02 05:09:00;;;;;;;1.43;0.67;;;;;;;;;;5046489;28;22072;-77
2021/12/02 05:11:25;;;;;;;2.90;0.93;;;;;;;;;;5059274;28;20182;-77
2021/12/02 05:13:50;;;;;;;1.93;0.60;;;;;;;;;;5039447;28;20207;-79
2021/12/02 05:16:16;;;;;;;1.57;0.60;;;;;;;;;;5040847;28;20179;-77
2021/12/02 05:18:41;;;;;;;2.20;0.77;;;;;;;;;;5044460;28;20183;-76
2021/12/02 05:21:06;;;;;;;1.10;0.80;;;;;;;;;;5048221;28;20196;-77
2021/12/02 05:23:32;;;;;;;0.67;0.50;;;;;;;;;;5042868;28;20229;-77
2021/12/02 05:25:57;;;;;;;0.77;0.50;;;;;;;;;;5044388;28;20225;-77
2021/12/02 05:28:22;;;;;;;1.80;0.60;;;;;;;;;;5048805;28;20667;-78
2021/12/02 05:30:48;;;;;;;0.60;0.53;;;;;;;;;;5042539;28;20174;-77
2021/12/02 05:33:13;;;;;;;0.90;0.50;;;;;;;;;;5051067;28;20218;-77
2021/12/02 05:35:39;;;;;;;1.27;0.60;;;;;;;;;;5046325;28;20198;-77
2021/12/02 05:38:04;;;;;;;2.77;0.67;;;;;;;;;;5053540;28;20183;-76
2021/12/02 05:40:29;;;;;;;2.00;0.67;;;;;;;;;;5051447;28;20274;-78
2021/12/02 05:42:55;;;;;;;3.50;0.97;;;;;;;;;;5054157;28;20195;-77
2021/12/02 05:45:20;;;;;;;2.60;0.73;;;;;;;;;;5045807;28;20748;-79
2021/12/02 05:47:45;;;;;;;2.43;0.90;;;;;;;;;;5048716;28;20184;-76
2021/12/02 05:50:11;;;;;;;0.93;0.63;;;;;;;;;;5046239;28;20182;-78
2021/12/02 05:52:36;;;;;;;1.17;0.70;;;;;;;;;;5047960;28;20229;-77
2021/12/02 05:55:01;;;;;;;1.20;0.80;;;;;;;;;;5051258;28;20211;-77
2021/12/02 05:57:27;;;;;;;1.47;0.60;;;;;;;;;;5052155;28;20782;-76
2021/12/02 05:59:52;;;;;;;1.63;0.70;;;;;;;;;;5048628;28;20176;-76
2021/12/02 06:02:17;;;;;;;1.63;0.80;;;;;;;;;;5043626;28;21122;-78
2021/12/02 06:04:44;;;;;;;2.00;0.70;;;;;;;;;;5047243;28;20215;-82
2021/12/02 06:07:10;;;;;;;1.57;0.70;;;;;;;;;;5041046;28;20540;-79
2021/12/02 06:09:35;;;;;;;0.87;0.50;;;;;;;;;;5033246;28;20428;-80
2021/12/02 06:12:03;;;;;;;1.00;0.63;;;;;;;;;;5041897;28;21735;-78
2021/12/02 06:14:29;;;;;;;2.33;0.60;;;;;;;;;;5043184;28;20207;-80
2021/12/02 06:16:54;;;;;;;1.67;0.80;;;;;;;;;;5032616;28;20433;-77
2021/12/02 06:19:20;;;;;;;1.87;0.80;;;;;;;;;;5035755;28;20177;-73
2021/12/02 06:21:45;;;;;;;1.33;0.60;;;;;;;;;;5032596;28;20285;-74
2021/12/02 06:24:11;;;;;;;1.00;0.50;;;;;;;;;;5041372;28;20209;-76
2021/12/02 06:26:37;;;;;;;0.70;0.50;;;;;;;;;;5038231;28;20187;-74
2021/12/02 06:29:02;;;;;;;1.53;0.60;;;;;;;;;;5042409;28;20313;-74
2021/12/02 06:31:28;;;;;;;0.63;0.50;;;;;;;;;;5040975;28;25162;-77
2021/12/02 06:33:53;;;;;;;0.83;0.70;;;;;;;;;;5040919;28;21014;-78
2021/12/02 06:36:19;;;;;;;1.20;0.60;;;;;;;;;;5041991;28;25134;-79
2021/12/02 06:38:47;;;;;;;1.87;0.70;;;;;;;;;;5047771;28;25070;-76
2021/12/02 06:41:16;;;;;;;0.70;0.70;;;;;;;;;;5044806;28;25055;-76
2021/12/02 06:43:41;;;;;;;0.70;0.50;;;;;;;;;;5046501;28;25108;-76
2021/12/02 06:46:06;;;;;;;1.57;0.80;;;;;;;;;;5047069;28;25091;-76
2021/12/02 06:48:32;;;;;;;1.80;0.77;;;;;;;;;;5050251;28;26166;-75
2021/12/02 06:50:57;;;;;;;0.70;0.60;;;;;;;;;;5048530;28;25149;-81
2021/12/02 06:53:22;;;;;;;1.33;0.77;;;;;;;;;;5045085;28;25153;-77
2021/12/02 06:55:48;;;;;;;2.50;0.80;;;;;;;;;;5042476;28;25092;-76
2021/12/02 06:58:14;;;;;;;1.00;0.77;;;;;;;;;;5042109;28;20183;-78
2021/12/02 07:00:39;;;;;;;2.10;0.70;;;;;;;;;;5040712;28;25104;-77
2021/12/02 07:03:04;;;;;;;2.47;0.87;;;;;;;;;;5040501;28;25068;-81
2021/12/02 07:05:32;;;;;;;0.90;0.70;;;;;;;;;;5050524;28;20278;-78
2021/12/02 07:07:58;;;;;;;0.93;0.70;;;;;;;;;;5039447;28;20201;-77
2021/12/02 07:10:25;;;;;;;1.47;0.97;;;;;;;;;;5042150;28;25099;-79
2021/12/02 07:12:54;;;;;;;1.00;0.90;;;;;;;;;;5048943;28;20704;-76
2021/12/02 07:15:24;;;;;;;1.17;0.70;;;;;;;;;;5039883;28;25138;-77
2021/12/02 07:17:54;;;;;;;1.50;1.07;;;;;;;;;;5036072;28;25141;-77
2021/12/02 07:20:19;;;;;;;1.67;1.10;;;;;;;;;;5041051;28;26188;-75
2021/12/02 07:22:44;;;;;;;2.27;1.33;;;;;;;;;;5041511;28;25152;-75
2021/12/02 07:25:10;;;;;;;5.70;2.53;;;;;;;;;;5039786;28;25077;-75
2021/12/02 07:27:36;;;;;;;4.43;2.30;;;;;;;;;;5038984;28;20212;-76
2021/12/02 07:30:01;;;;;;;5.20;1.90;;;;;;;;;;5039937;28;25070;-76
2021/12/02 07:32:32;;;;;;;4.90;2.30;;;;;;;;;;5043365;28;20201;-75
2021/12/02 07:35:00;;;;;;;7.00;3.13;;;;;;;;;;5042561;28;25085;-75
2021/12/02 07:37:26;;;;;;;6.73;3.07;;;;;;;;;;5045627;28;25110;-77
2021/12/02 07:39:51;;;;;;;8.97;3.87;;;;;;;;;;5038863;28;20441;-75
2021/12/02 07:42:17;;;;;;;10.67;4.20;;;;;;;;;;5045535;28;20659;-76
2021/12/02 07:44:43;;;;;;;14.80;5.13;;;;;;;;;;5038149;28;21618;-75
2021/12/02 07:47:08;;;;;;;9.77;4.03;;;;;;;;;;5048313;28;20446;-75
2021/12/02 07:49:34;;;;;;;11.90;5.40;;;;;;;;;;5048109;28;25119;-82
2021/12/02 07:52:00;;;;;;;13.60;5.70;;;;;;;;;;5038919;28;20712;-78
2021/12/02 07:54:25;;;;;;;7.20;3.57;;;;;;;;;;5046917;28;20218;-75
2021/12/02 07:56:52;;;;;;;8.07;3.53;;;;;;;;;;5048586;28;20440;-77
2021/12/02 07:59:18;;;;;;;17.87;6.00;;;;;;;;;;5037864;28;25062;-77
2021/12/02 08:01:44;;;;;;;14.33;5.87;;;;;;;;;;5035037;28;25105;-76
2021/12/02 08:04:09;;;;;;;12.80;5.30;;;;;;;;;;5038454;28;20468;-75
2021/12/02 08:06:35;;;;;;;8.40;3.03;;;;;;;;;;5056074;28;25188;-74
2021/12/02 08:09:10;;;;;;;5.17;3.10;;;;;;;;;;5036936;28;20218;-77
2021/12/02 08:11:36;;;;;;;4.10;2.07;;;;;;;;;;5023162;28;20186;-77
2021/12/02 08:14:01;;;;;;;13.23;4.70;;;;;;;;;;5036873;28;21040;-78
2021/12/02 08:16:27;;;;;;;7.70;3.30;;;;;;;;;;5043091;28;20193;-79
2021/12/02 08:18:52;;;;;;;5.20;2.43;;;;;;;;;;5044243;28;20281;-79
2021/12/02 08:21:18;;;;;;;6.67;2.80;;;;;;;;;;5043074;28;20597;-80
2021/12/02 08:23:43;;;;;;;3.10;2.10;;;;;;;;;;5045432;28;20242;-79
2021/12/02 08:26:11;;;;;;;3.23;1.97;;;;;;;;;;5041988;28;20198;-78
2021/12/02 08:28:37;;;;;;;2.80;1.20;;;;;;;;;;5043710;28;20629;-76
2021/12/02 08:31:02;;;;;;;2.50;1.10;;;;;;;;;;5042718;28;25212;-84
2021/12/02 08:33:28;;;;;;;3.50;0.90;;;;;;;;;;5046897;28;25072;-79
2021/12/02 08:35:53;;;;;;;0.80;0.70;;;;;;;;;;5045851;28;20179;-79
2021/12/02 08:38:22;;;;;;;2.27;0.93;;;;;;;;;;5045100;28;20246;-78
2021/12/02 08:40:48;;;;;;;1.17;0.90;;;;;;;;;;5047123;28;20179;-84
2021/12/02 08:43:13;;;;;;;1.83;0.87;;;;;;;;;;5048747;28;20561;-78
2021/12/02 08:45:42;;;;;;;3.50;0.90;;;;;;;;;;5037207;28;20475;-85
2021/12/02 08:48:08;;;;;;;1.23;0.80;;;;;;;;;;5035379;28;20197;-78
2021/12/02 08:50:33;;;;;;;3.03;0.80;;;;;;;;;;5045990;28;25104;-83
2021/12/02 08:53:00;;;;;;;2.70;0.93;;;;;;;;;;5037574;28;20739;-77
2021/12/02 08:55:26;;;;;;;2.03;0.90;;;;;;;;;;5044399;28;25122;-81
2021/12/02 08:57:52;;;;;;;0.60;0.60;;;;;;;;;;5049599;28;25166;-76
2021/12/02 09:00:19;;;;;;;2.17;0.80;;;;;;;;;;5042547;28;21054;-75
2021/12/02 09:02:44;;;;;;;1.77;0.70;;;;;;;;;;5045404;28;25113;-78
2021/12/02 09:05:10;;;;;;;2.70;0.83;;;;;;;;;;5047818;28;20452;-76
2021/12/02 09:07:36;;;;;;;1.40;0.70;;;;;;;;;;5047020;28;25090;-76
2021/12/02 09:10:01;;;;;;;2.30;0.80;;;;;;;;;;5044865;28;25073;-76
2021/12/02 09:12:27;;;;;;;3.20;1.03;;;;;;;;;;5032058;28;25140;-77
2021/12/02 09:14:52;;;;;;;2.30;0.80;;;;;;;;;;5046332;28;25083;-77
2021/12/02 09:17:18;;;;;;;2.60;0.80;;;;;;;;;;5044203;28;21790;-77
2021/12/02 09:19:43;;;;;;;1.03;0.80;;;;;;;;;;5038291;28;20199;-76
2021/12/02 09:22:08;;;;;;;1.17;1.00;;;;;;;;;;5044062;28;20210;-75
2021/12/02 09:24:34;;;;;;;1.53;0.70;;;;;;;;;;5042706;28;20209;-76
2021/12/02 09:26:59;;;;;;;1.57;0.77;;;;;;;;;;5041508;28;25148;-76
2021/12/02 09:29:25;;;;;;;0.83;0.77;;;;;;;;;;5050352;28;20206;-76
2021/12/02 09:31:51;;;;;;;1.00;0.90;;;;;;;;;;5035654;28;25071;-76
2021/12/02 09:34:16;;;;;;;0.80;0.70;;;;;;;;;;5038238;28;25065;-77
2021/12/02 09:36:42;;;;;;;1.53;1.00;;;;;;;;;;5043458;28;25196;-75
2021/12/02 09:39:08;;;;;;;0.80;0.80;;;;;;;;;;5043042;28;20188;-77
2021/12/02 09:41:34;;;;;;;2.30;1.00;;;;;;;;;;5037571;28;25070;-76
2021/12/02 09:44:01;;;;;;;1.77;0.80;;;;;;;;;;5035496;28;25131;-74
2021/12/02 09:46:26;;;;;;;2.77;0.70;;;;;;;;;;5040795;28;25143;-82
2021/12/02 09:48:52;;;;;;;2.23;0.90;;;;;;;;;;5031561;28;25206;-76
2021/12/02 09:51:23;;;;;;;1.83;0.70;;;;;;;;;;5044826;28;25067;-78
2021/12/02 09:56:17;;;;;;;0.60;0.60;;;;;;;;;;5040552;28;25098;-75
2021/12/02 09:58:42;;;;;;;0.70;0.70;;;;;;;;;;5039228;28;25070;-75
2021/12/02 10:01:10;;;;;;;1.20;0.63;;;;;;;;;;5037846;28;25132;-76
2021/12/02 10:03:41;;;;;;;2.00;0.80;;;;;;;;;;5046355;28;25059;-74
2021/12/02 10:06:17;;;;;;;2.60;1.13;;;;;;;;;;5040015;28;25117;-76
2021/12/02 10:09:05;;;;;;;1.30;1.00;;;;;;;;;;5040711;28;20430;-77
2021/12/02 10:11:34;;;;;;;2.40;0.80;;;;;;;;;;5045504;28;20441;-77
2021/12/02 10:14:26;;;;;;;1.17;1.00;;;;;;;;;;5050979;28;25141;-74
2021/12/02 10:17:26;;;;;;;2.40;1.20;;;;;;;;;;5043761;28;25178;-75
2021/12/02 10:22:38;;;;;;;1.37;0.80;;;;;;;;;;5047926;28;25162;-75
2021/12/02 10:25:04;;;;;;;1.20;1.10;;;;;;;;;;5041777;28;25192;-74
2021/12/02 10:27:29;;;;;;;1.33;1.10;;;;;;;;;;5046902;28;25139;-75
2021/12/02 10:29:55;;;;;;;3.37;1.00;;;;;;;;;;5049682;28;20501;-76
2021/12/02 10:32:22;;;;;;;2.00;0.70;;;;;;;;;;5043898;28;25121;-74
2021/12/02 10:34:58;;;;;;;1.60;0.63;;;;;;;;;;5040196;28;25049;-73
2021/12/02 10:37:25;;;;;;;0.70;0.70;;;;;;;;;;5062473;28;25182;-74
2021/12/02 10:40:11;;;;;;;1.23;1.10;;;;;;;;;;5046534;28;25191;-75
2021/12/02 10:42:43;;;;;;;1.13;1.00;;;;;;;;;;5047032;28;20448;-73
2021/12/02 10:45:20;;;;;;;1.40;0.70;;;;;;;;;;5026397;28;25094;-74
2021/12/02 10:47:49;;;;;;;1.27;0.70;;;;;;;;;;5026818;28;25108;-75
2021/12/02 10:50:15;;;;;;;1.30;0.80;;;;;;;;;;5049092;28;25138;-73
2021/12/02 10:52:40;;;;;;;2.30;0.90;;;;;;;;;;5051624;28;20916;-74
2021/12/02 10:55:09;;;;;;;2.60;1.03;;;;;;;;;;5041817;28;25074;-74
2021/12/02 10:57:38;;;;;;;2.50;1.33;;;;;;;;;;5045678;28;20205;-73
2021/12/02 11:00:12;;;;;;;1.00;0.80;;;;;;;;;;5048680;28;21206;-75
2021/12/02 11:02:40;;;;;;;0.87;0.87;;;;;;;;;;5048333;28;25103;-76
2021/12/02 11:05:05;;;;;;;1.03;0.90;;;;;;;;;;5046651;28;25110;-75
2021/12/02 11:07:34;;;;;;;2.67;1.03;;;;;;;;;;5040217;28;25131;-75
2021/12/02 11:10:01;;;;;;;1.73;1.13;;;;;;;;;;5043358;28;25109;-75
2021/12/02 11:12:34;;;;;;;1.83;1.30;;;;;;;;;;5049361;28;25110;-74
2021/12/02 11:15:08;;;;;;;1.77;0.93;;;;;;;;;;5051750;28;20476;-75
2021/12/02 11:17:47;;;;;;;1.33;0.80;;;;;;;;;;5049404;28;25107;-75
2021/12/02 11:20:27;;;;;;;0.93;0.80;;;;;;;;;;5048681;28;22129;-75
2021/12/02 11:22:53;;;;;;;2.20;0.97;;;;;;;;;;5063787;28;25106;-76
2021/12/02 11:25:18;;;;;;;1.83;1.70;;;;;;;;;;5048534;28;25098;-75
2021/12/02 11:27:48;;;;;;;0.80;0.70;;;;;;;;;;5049937;28;20460;-78
2021/12/02 11:30:19;;;;;;;1.43;0.90;;;;;;;;;;5054365;28;20190;-78
2021/12/02 11:32:44;;;;;;;1.80;1.00;;;;;;;;;;5052260;28;25099;-77
2021/12/02 11:35:09;;;;;;;0.73;0.70;;;;;;;;;;5046361;28;25199;-77
2021/12/02 11:37:39;;;;;;;2.33;0.70;;;;;;;;;;5050864;28;25064;-76
2021/12/02 11:40:09;;;;;;;1.03;0.63;;;;;;;;;;5049881;28;25137;-77
2021/12/02 11:42:38;;;;;;;1.23;0.87;;;;;;;;;;5049743;28;25541;-76
2021/12/02 11:45:05;;;;;;;2.00;0.70;;;;;;;;;;5049551;28;25097;-76
2021/12/02 11:47:30;;;;;;;0.80;0.70;;;;;;;;;;5046087;28;25096;-74
2021/12/02 11:49:56;;;;;;;1.93;0.60;;;;;;;;;;5048810;28;20947;-74
2021/12/02 11:52:21;;;;;;;1.60;0.73;;;;;;;;;;5042969;28;20197;-74
2021/12/02 11:54:49;;;;;;;1.17;0.90;;;;;;;;;;5049080;28;20603;-74
2021/12/02 11:57:14;;;;;;;1.70;0.60;;;;;;;;;;5041451;28;25101;-74
2021/12/02 11:59:40;;;;;;;1.63;0.93;;;;;;;;;;5041231;28;20442;-77
2021/12/02 12:02:06;;;;;;;2.00;0.77;;;;;;;;;;5041054;28;25122;-75
2021/12/02 12:04:35;;;;;;;1.03;1.00;;;;;;;;;;5048348;28;25066;-74
2021/12/02 12:07:13;;;;;;;1.13;1.03;;;;;;;;;;5049830;28;20491;-75
2021/12/02 12:09:41;;;;;;;2.13;1.57;;;;;;;;;;5048528;28;20975;-76
2021/12/02 12:12:07;;;;;;;1.23;1.00;;;;;;;;;;5047402;28;25107;-74
2021/12/02 12:14:33;;;;;;;3.53;1.73;;;;;;;;;;5050123;28;25097;-77
2021/12/02 12:17:13;;;;;;;2.30;1.50;;;;;;;;;;5050107;28;25124;-74
2021/12/02 12:19:42;;;;;;;1.97;1.20;;;;;;;;;;5049272;28;25151;-73
2021/12/02 12:22:11;;;;;;;4.07;1.27;;;;;;;;;;5046168;28;20451;-75
2021/12/02 12:24:49;;;;;;;2.80;0.90;;;;;;;;;;5041483;28;20472;-75
2021/12/02 12:27:17;;;;;;;1.23;1.13;;;;;;;;;;5038241;28;25109;-74
2021/12/02 12:29:43;;;;;;;0.80;0.80;;;;;;;;;;5041080;28;20460;-73
2021/12/02 12:32:15;;;;;;;2.43;0.90;;;;;;;;;;5050008;28;25117;-74
2021/12/02 12:34:53;;;;;;;2.97;0.80;;;;;;;;;;5054947;28;25071;-75
2021/12/02 12:37:46;;;;;;;1.30;0.90;;;;;;;;;;5046849;28;20515;-76
2021/12/02 12:40:17;;;;;;;5.83;2.03;;;;;;;;;;5046849;28;25098;-73
2021/12/02 12:42:44;;;;;;;8.80;2.60;;;;;;;;;;5043687;28;25106;-73
2021/12/02 12:45:10;;;;;;;4.30;2.20;;;;;;;;;;5037901;28;25168;-73
2021/12/02 12:47:42;;;;;;;6.50;2.17;;;;;;;;;;5049279;28;25113;-73
2021/12/02 12:50:26;;;;;;;4.60;1.80;;;;;;;;;;5045253;28;20495;-72
2021/12/02 12:53:04;;;;;;;2.50;1.60;;;;;;;;;;5041940;28;25178;-73
2021/12/02 12:55:30;;;;;;;2.83;1.23;;;;;;;;;;5042918;28;25120;-74
2021/12/02 12:58:17;;;;;;;1.53;1.37;;;;;;;;;;5059328;28;25101;-74
2021/12/02 13:00:44;;;;;;;1.60;1.20;;;;;;;;;;5047372;28;25059;-78
2021/12/02 13:06:25;;;;;;;2.43;1.50;;;;;;;;;;5025277;28;20746;-82
2021/12/02 13:08:51;;;;;;;2.90;1.40;;;;;;;;;;5043770;28;25129;-85
2021/12/02 13:11:20;;;;;;;3.17;1.47;;;;;;;;;;5047514;28;25111;-79
2021/12/02 13:13:47;;;;;;;1.53;1.10;;;;;;;;;;5043616;28;20525;-76
2021/12/02 13:16:24;;;;;;;1.33;1.13;;;;;;;;;;5043083;28;25105;-79
2021/12/02 13:19:00;;;;;;;0.90;0.87;;;;;;;;;;5046121;28;25094;-76
2021/12/02 13:21:28;;;;;;;2.00;0.80;;;;;;;;;;5049252;28;25120;-75
2021/12/02 13:23:56;;;;;;;3.23;0.80;;;;;;;;;;5041012;28;20486;-75
2021/12/02 13:26:23;;;;;;;1.00;0.90;;;;;;;;;;5042425;28;25104;-75
2021/12/02 13:28:49;;;;;;;0.83;0.80;;;;;;;;;;5044591;28;25150;-75
2021/12/02 13:31:16;;;;;;;0.70;0.70;;;;;;;;;;5040439;28;25106;-75
2021/12/02 13:33:43;;;;;;;6.83;0.70;;;;;;;;;;5047376;28;20465;-76
2021/12/02 13:36:10;;;;;;;1.27;0.70;;;;;;;;;;5035968;28;25127;-75
2021/12/02 13:38:36;;;;;;;1.63;0.60;;;;;;;;;;5042033;28;25095;-75
2021/12/02 13:41:12;;;;;;;1.43;0.63;;;;;;;;;;5045245;28;25102;-76
2021/12/02 13:43:58;;;;;;;0.70;0.70;;;;;;;;;;5046755;28;25082;-79
2021/12/02 13:46:32;;;;;;;2.17;1.07;;;;;;;;;;5047242;28;25091;-76
2021/12/02 13:49:00;;;;;;;1.40;0.80;;;;;;;;;;5042800;28;25105;-76
2021/12/02 13:54:23;;;;;;;1.90;0.67;;;;;;;;;;5041893;28;26074;-78
2021/12/02 13:56:48;;;;;;;4.73;0.70;;;;;;;;;;5041722;28;25105;-76
2021/12/02 13:59:16;;;;;;;1.03;0.83;;;;;;;;;;5049365;28;25120;-76
2021/12/02 14:01:50;;;;;;;3.27;0.80;;;;;;;;;;5041607;28;20228;-75
2021/12/02 14:04:19;;;;;;;1.80;0.80;;;;;;;;;;5051326;28;25111;-84
2021/12/02 14:06:44;;;;;;;1.40;0.73;;;;;;;;;;5045316;28;25141;-77
2021/12/02 14:09:17;;;;;;;4.93;0.80;;;;;;;;;;5050062;28;25140;-76
2021/12/02 14:11:42;;;;;;;1.17;0.60;;;;;;;;;;5049338;28;25099;-75
2021/12/02 14:14:14;;;;;;;0.50;0.50;;;;;;;;;;5051463;28;25130;-75
2021/12/02 14:16:40;;;;;;;0.60;0.60;;;;;;;;;;5051070;28;25122;-77
2021/12/02 14:19:09;;;;;;;1.50;0.70;;;;;;;;;;5052609;28;25114;-78
2021/12/02 14:21:35;;;;;;;1.07;0.70;;;;;;;;;;5050548;28;25079;-74
2021/12/02 14:24:00;;;;;;;1.57;0.70;;;;;;;;;;5048407;28;25095;-75
2021/12/02 14:26:27;;;;;;;1.93;1.00;;;;;;;;;;5047551;28;25061;-76
2021/12/02 14:28:54;;;;;;;1.13;0.70;;;;;;;;;;5053867;28;25056;-77
2021/12/02 14:31:30;;;;;;;0.83;0.80;;;;;;;;;;5049086;28;25131;-78
2021/12/02 14:33:56;;;;;;;2.87;2.10;;;;;;;;;;5049983;28;25202;-78
2021/12/02 14:36:23;;;;;;;1.97;1.10;;;;;;;;;;5048065;28;25095;-75
2021/12/02 14:39:08;;;;;;;2.10;1.03;;;;;;;;;;5051878;28;25132;-77
2021/12/02 14:41:38;;;;;;;1.17;1.10;;;;;;;;;;5044849;28;25158;-76
2021/12/02 14:44:06;;;;;;;2.30;1.80;;;;;;;;;;5048907;28;25135;-76
2021/12/02 14:46:39;;;;;;;2.60;2.07;;;;;;;;;;5054663;28;20455;-78
2021/12/02 14:49:10;;;;;;;3.03;1.70;;;;;;;;;;5045596;28;25096;-77
2021/12/02 14:51:49;;;;;;;1.97;1.57;;;;;;;;;;5044714;28;25097;-76
2021/12/02 14:54:25;;;;;;;2.23;1.60;;;;;;;;;;5048049;28;25210;-77
2021/12/02 14:56:50;;;;;;;3.53;2.00;;;;;;;;;;5046472;28;25191;-81
2021/12/02 14:59:26;;;;;;;31.50;16.77;;;;;;;;;;5050369;28;25119;-77
2021/12/02 15:04:28;;;;;;;16.97;8.80;;;;;;;;;;5441391;22;25194;-78
2021/12/02 15:06:54;;;;;;;4.20;2.90;;;;;;;;;;5048645;28;25153;-76